createdAt,value
2019-04-23T00:02:51.163Z,9.78
2019-04-23T00:05:16.994Z,9.75
2019-04-23T00:10:30.291Z,9.67
2019-04-23T00:13:05.711Z,9.64
2019-04-23T00:21:42.586Z,9.49
2019-04-23T00:25:04.760Z,9.42
2019-04-23T00:40:11.360Z,9.14
2019-04-23T00:43:17.373Z,9.12
2019-04-23T00:46:28.271Z,9.08
2019-04-23T00:49:51.684Z,9.10
2019-04-23T00:59:55.868Z,9.07
2019-04-23T01:06:17.732Z,8.97
2019-04-23T01:09:22.741Z,8.90
2019-04-23T01:12:16.642Z,8.85
2019-04-23T01:15:04.369Z,8.82
2019-04-23T01:18:10.894Z,8.81
2019-04-23T01:21:07.570Z,8.80
2019-04-23T01:24:15.346Z,8.76
2019-04-23T01:30:10.095Z,8.63
2019-04-23T01:32:41.032Z,8.55
2019-04-23T01:38:06.153Z,8.44
2019-04-23T01:40:41.228Z,8.40
2019-04-23T01:43:38.235Z,8.35
2019-04-23T01:45:56.151Z,8.31
2019-04-23T01:48:42.379Z,8.29
2019-04-23T01:51:07.810Z,8.28
2019-04-23T01:53:50.046Z,8.21
2019-04-23T01:56:29.554Z,8.19
2019-04-23T01:59:10.825Z,8.13
2019-04-23T02:01:58.400Z,8.09
2019-04-23T02:04:28.588Z,8.03
2019-04-23T02:07:06.334Z,7.97
2019-04-23T02:09:45.332Z,7.90
2019-04-23T02:12:18.054Z,7.83
2019-04-23T02:14:59.370Z,7.78
2019-04-23T02:17:38.685Z,7.72
2019-04-23T02:20:17.806Z,7.67
2019-04-23T02:23:04.656Z,7.62
2019-04-23T02:31:14.761Z,7.48
2019-04-23T02:36:07.850Z,7.32
2019-04-23T02:41:35.275Z,7.22
2019-04-23T02:44:11.706Z,7.23
2019-04-23T02:46:55.940Z,7.30
2019-04-23T02:49:35.874Z,7.36
2019-04-23T02:52:11.192Z,7.36
2019-04-23T02:57:20.358Z,7.34
2019-04-23T03:05:11.655Z,7.41
2019-04-23T03:07:52.752Z,7.37
2019-04-23T03:10:43.311Z,7.35
2019-04-23T03:13:09.101Z,7.36
2019-04-23T03:16:08.461Z,7.32
2019-04-23T03:18:56.562Z,7.30
2019-04-23T03:21:46.938Z,7.26
2019-04-23T03:24:21.340Z,7.21
2019-04-23T03:37:32.178Z,7.18
2019-04-23T03:42:42.356Z,7.14
2019-04-23T03:45:27.877Z,7.14
2019-04-23T03:48:05.994Z,7.17
2019-04-23T03:50:35.426Z,7.19
2019-04-23T03:53:24.396Z,7.19
2019-04-23T03:56:17.818Z,7.24
2019-04-23T03:58:38.710Z,7.33
2019-04-23T04:01:12.307Z,7.50
2019-04-23T04:04:20.612Z,7.63
2019-04-23T04:09:17.256Z,8.06
2019-04-23T04:11:27.516Z,8.41
2019-04-23T04:14:31.745Z,9.04
2019-04-23T04:27:36.426Z,13.76
2019-04-23T04:30:14.571Z,14.48
2019-04-23T04:32:50.952Z,14.97
2019-04-23T04:35:22.072Z,15.38
2019-04-23T04:38:06.190Z,15.72
2019-04-23T04:40:38.030Z,16.11
2019-04-23T04:43:23.036Z,16.15
2019-04-23T04:46:04.936Z,15.85
2019-04-23T04:48:33.377Z,14.13
2019-04-23T04:51:24.356Z,12.92
2019-04-23T05:01:37.777Z,10.25
2019-04-23T05:04:19.839Z,10.11
2019-04-23T05:07:02.182Z,9.96
2019-04-23T05:09:40.560Z,9.93
2019-04-23T05:12:19.183Z,9.97
2019-04-23T05:14:56.855Z,9.96
2019-04-23T05:17:35.241Z,10.03
2019-04-23T05:20:12.557Z,10.11
2019-04-23T05:22:49.343Z,10.19
2019-04-23T05:25:16.963Z,10.27
2019-04-23T05:28:08.190Z,10.34
2019-04-23T05:30:46.444Z,10.40
2019-04-23T05:33:18.529Z,10.45
2019-04-23T05:38:43.786Z,10.54
2019-04-23T05:41:20.033Z,10.55
2019-04-23T05:46:40.709Z,10.54
2019-04-23T05:49:09.269Z,10.59
2019-04-23T05:51:50.968Z,10.61
2019-04-23T05:54:22.602Z,10.66
2019-04-23T05:56:55.115Z,10.71
2019-04-23T05:59:51.665Z,10.83
2019-04-23T06:04:51.662Z,11.07
2019-04-23T06:07:37.924Z,11.16
2019-04-23T06:10:06.379Z,11.17
2019-04-23T06:12:45.320Z,11.16
2019-04-23T06:16:10.463Z,11.13
2019-04-23T06:18:38.329Z,11.19
2019-04-23T06:21:12.246Z,11.28
2019-04-23T06:26:33.054Z,11.62
2019-04-23T06:29:10.291Z,11.85
2019-04-23T06:31:44.175Z,12.02
2019-04-23T06:39:46.051Z,12.31
2019-04-23T06:42:14.081Z,12.40
2019-04-23T06:47:24.906Z,12.49
2019-04-23T06:50:04.611Z,12.62
2019-04-23T06:52:44.062Z,12.67
2019-04-23T06:55:28.806Z,12.76
2019-04-23T06:58:04.716Z,12.95
2019-04-23T07:00:43.212Z,13.27
2019-04-23T07:04:04.960Z,13.52
2019-04-23T07:11:17.225Z,13.89
2019-04-23T07:13:53.218Z,13.84
2019-04-23T07:16:21.439Z,13.82
2019-04-23T07:19:04.930Z,13.84
2019-04-23T07:21:50.630Z,13.91
2019-04-23T07:24:31.279Z,13.98
2019-04-23T07:27:04.326Z,14.01
2019-04-23T07:30:08.679Z,14.18
2019-04-23T07:32:43.393Z,14.35
2019-04-23T07:35:15.836Z,14.39
2019-04-23T07:38:05.743Z,14.42
2019-04-23T07:40:48.056Z,14.36
2019-04-23T07:43:54.790Z,14.43
2019-04-23T07:46:58.276Z,14.56
2019-04-23T07:49:23.428Z,14.64
2019-04-23T07:52:03.614Z,14.68
2019-04-23T07:54:45.709Z,14.76
2019-04-23T07:59:56.320Z,14.66
2019-04-23T08:02:37.637Z,14.72
2019-04-23T08:05:15.516Z,14.81
2019-04-23T08:07:58.750Z,14.92
2019-04-23T08:10:35.721Z,14.99
2019-04-23T08:13:15.578Z,14.99
2019-04-23T08:15:51.968Z,15.02
2019-04-23T08:18:29.731Z,15.13
2019-04-23T08:21:05.552Z,15.17
2019-04-23T08:23:49.582Z,15.28
2019-04-23T08:26:42.147Z,15.43
2019-04-23T08:29:27.575Z,15.57
2019-04-23T08:32:04.863Z,15.58
2019-04-23T08:34:56.339Z,15.62
2019-04-23T08:37:18.556Z,15.66
2019-04-23T08:39:49.836Z,15.81
2019-04-23T08:48:04.169Z,16.22
2019-04-23T09:03:39.169Z,16.68
2019-04-23T09:06:24.243Z,16.69
2019-04-23T09:08:56.560Z,16.78
2019-04-23T09:14:05.610Z,17.11
2019-04-23T09:16:58.299Z,17.11
2019-04-23T09:22:14.540Z,17.27
2019-04-23T09:24:47.198Z,17.28
2019-04-23T09:27:28.910Z,17.36
2019-04-23T09:30:07.615Z,17.44
2019-04-23T09:32:42.233Z,17.61
2019-04-23T09:38:07.149Z,17.73
2019-04-23T09:41:15.728Z,17.73
2019-04-23T09:43:40.308Z,17.61
2019-04-23T09:46:17.652Z,17.60
2019-04-23T09:49:03.376Z,17.73
2019-04-23T09:51:38.248Z,17.79
2019-04-23T09:54:18.508Z,17.90
2019-04-23T09:56:50.876Z,17.94
2019-04-23T09:59:31.232Z,17.98
2019-04-23T10:01:57.751Z,18.08
2019-04-23T10:04:28.195Z,18.21
2019-04-23T10:07:06.810Z,18.17
2019-04-23T10:09:32.105Z,18.17
2019-04-23T10:12:09.452Z,18.18
2019-04-23T10:14:54.868Z,18.20
2019-04-23T10:17:24.353Z,18.16
2019-04-23T10:20:00.697Z,18.09
2019-04-23T10:22:38.048Z,18.16
2019-04-23T10:25:15.186Z,18.26
2019-04-23T10:27:56.959Z,18.40
2019-04-23T10:30:28.963Z,18.51
2019-04-23T10:33:05.658Z,18.62
2019-04-23T10:35:51.322Z,18.70
2019-04-23T10:38:20.715Z,18.83
2019-04-23T10:40:58.082Z,18.91
2019-04-23T10:43:38.751Z,19.01
2019-04-23T10:46:29.597Z,19.02
2019-04-23T10:52:06.975Z,18.92
2019-04-23T11:00:06.701Z,18.66
2019-04-23T11:02:40.121Z,18.70
2019-04-23T11:05:16.300Z,18.71
2019-04-23T11:07:33.979Z,18.72
2019-04-23T11:10:21.896Z,18.53
2019-04-23T11:13:14.757Z,18.41
2019-04-23T11:16:11.037Z,18.54
2019-04-23T11:18:38.526Z,18.60
2019-04-23T11:21:09.325Z,18.71
2019-04-23T11:23:42.899Z,18.86
2019-04-23T11:26:26.249Z,19.00
2019-04-23T11:29:19.421Z,19.17
2019-04-23T11:34:29.795Z,19.21
2019-04-23T11:39:32.638Z,19.48
2019-04-23T11:42:14.706Z,19.56
2019-04-23T11:48:00.465Z,19.41
2019-04-23T11:50:13.034Z,19.41
2019-04-23T11:50:49.912Z,19.48
2019-04-23T11:55:37.551Z,19.32
2019-04-23T11:58:14.975Z,19.29
2019-04-23T12:00:44.999Z,19.32
2019-04-23T12:03:04.152Z,19.35
2019-04-23T12:06:07.486Z,19.31
2019-04-23T12:08:57.111Z,19.22
2019-04-23T12:14:29.167Z,19.08
2019-04-23T12:17:17.288Z,19.03
2019-04-23T12:27:33.159Z,19.14
2019-04-23T12:30:21.019Z,19.22
2019-04-23T12:35:29.469Z,19.55
2019-04-23T12:40:44.200Z,19.79
2019-04-23T12:43:29.431Z,19.61
2019-04-23T12:45:56.829Z,19.51
2019-04-23T12:48:49.452Z,19.37
2019-04-23T12:51:29.496Z,19.34
2019-04-23T12:53:49.072Z,19.29
2019-04-23T12:56:48.665Z,19.21
2019-04-23T12:59:12.440Z,19.16
2019-04-23T13:01:55.539Z,19.16
2019-04-23T13:04:37.906Z,19.15
2019-04-23T13:07:09.855Z,19.20
2019-04-23T13:09:53.987Z,19.23
2019-04-23T13:17:44.522Z,19.44
2019-04-23T13:20:20.000Z,19.40
2019-04-23T13:22:58.205Z,19.42
2019-04-23T13:25:49.513Z,19.39
2019-04-23T13:33:35.127Z,19.30
2019-04-23T13:43:48.385Z,19.36
2019-04-23T13:46:34.446Z,19.37
2019-04-23T13:49:16.659Z,19.34
2019-04-23T13:51:46.607Z,19.27
2019-04-23T13:54:46.811Z,19.27
2019-04-23T13:57:37.267Z,19.35
2019-04-23T13:59:47.103Z,19.36
2019-04-23T14:02:34.522Z,19.34
2019-04-23T14:05:08.646Z,19.32
2019-04-23T14:07:48.476Z,19.34
2019-04-23T14:10:29.748Z,19.24
2019-04-23T14:13:16.767Z,19.12
2019-04-23T14:15:46.239Z,18.98
2019-04-23T14:21:02.667Z,18.78
2019-04-23T14:24:00.287Z,18.71
2019-04-23T14:28:45.027Z,18.66
2019-04-23T14:31:23.096Z,18.60
2019-04-23T14:34:06.281Z,18.57
2019-04-23T14:36:42.864Z,18.51
2019-04-23T14:41:57.743Z,18.41
2019-04-23T14:44:54.554Z,18.30
2019-04-23T14:47:31.133Z,18.18
2019-04-23T14:50:28.037Z,18.14
2019-04-23T14:52:50.643Z,18.05
2019-04-23T14:58:10.001Z,17.91
2019-04-23T15:00:46.594Z,17.77
2019-04-23T15:06:05.045Z,17.39
2019-04-23T15:08:39.850Z,17.30
2019-04-23T15:11:20.572Z,17.16
2019-04-23T15:21:53.848Z,16.81
2019-04-23T15:24:26.253Z,16.74
2019-04-23T15:29:35.043Z,16.61
2019-04-23T15:32:27.037Z,16.56
2019-04-23T15:35:13.292Z,16.54
2019-04-23T15:40:15.108Z,16.54
2019-04-23T15:42:58.125Z,16.51
2019-04-23T15:45:28.544Z,16.47
2019-04-23T15:48:11.755Z,16.49
2019-04-23T15:50:46.257Z,16.49
2019-04-23T15:53:11.500Z,16.51
2019-04-23T15:56:16.431Z,16.51
2019-04-23T15:58:46.508Z,16.52
2019-04-23T16:03:40.880Z,16.49
2019-04-23T16:06:23.510Z,16.46
2019-04-23T16:09:21.393Z,16.47
2019-04-23T16:12:03.106Z,16.47
2019-04-23T16:14:58.518Z,16.45
2019-04-23T16:20:28.773Z,16.43
2019-04-23T16:22:51.156Z,16.42
2019-04-23T16:25:17.867Z,16.41
2019-04-23T16:28:03.266Z,16.44
2019-04-23T16:30:34.726Z,16.43
2019-04-23T16:33:22.012Z,16.45
2019-04-23T16:36:01.495Z,16.42
2019-04-23T16:38:40.687Z,16.43
2019-04-23T16:41:09.914Z,16.44
2019-04-23T16:43:57.790Z,16.43
2019-04-23T16:46:28.547Z,16.42
2019-04-23T16:51:40.122Z,16.37
2019-04-23T16:54:24.914Z,16.35
2019-04-23T16:59:34.585Z,16.32
2019-04-23T17:02:18.193Z,16.30
2019-04-23T17:04:55.091Z,16.32
2019-04-23T17:07:22.175Z,16.33
2019-04-23T17:10:07.887Z,16.31
2019-04-23T17:12:46.187Z,16.28
2019-04-23T17:15:27.571Z,16.23
2019-04-23T17:18:01.759Z,16.18
2019-04-23T17:20:44.073Z,16.20
2019-04-23T17:23:27.413Z,16.16
2019-04-23T17:25:58.166Z,16.14
2019-04-23T17:28:27.939Z,16.14
2019-04-23T17:34:24.338Z,16.08
2019-04-23T17:37:05.275Z,16.04
2019-04-23T17:39:57.209Z,15.97
2019-04-23T17:48:05.535Z,15.89
2019-04-23T17:50:56.744Z,15.87
2019-04-23T17:53:35.269Z,15.84
2019-04-23T17:56:23.111Z,15.85
2019-04-23T17:58:43.920Z,15.84
2019-04-23T18:01:28.835Z,15.81
2019-04-23T18:04:11.658Z,15.79
2019-04-23T18:06:45.312Z,15.81
2019-04-23T18:09:25.578Z,15.79
2019-04-23T18:12:01.060Z,15.78
2019-04-23T18:14:21.628Z,15.75
2019-04-23T18:17:13.081Z,15.74
2019-04-23T18:20:04.753Z,15.72
2019-04-23T18:22:46.613Z,15.73
2019-04-23T18:25:27.062Z,15.69
2019-04-23T18:28:03.544Z,15.65
2019-04-23T18:31:03.873Z,15.64
2019-04-23T18:36:08.457Z,15.60
2019-04-23T18:38:53.047Z,15.57
2019-04-23T18:41:27.456Z,15.55
2019-04-23T18:46:43.577Z,15.52
2019-04-23T18:49:28.625Z,15.49
2019-04-23T18:52:06.932Z,15.42
2019-04-23T18:54:40.738Z,15.39
2019-04-23T18:59:57.141Z,15.29
2019-04-23T19:02:51.686Z,15.22
2019-04-23T19:11:01.044Z,15.01
2019-04-23T19:13:32.286Z,14.92
2019-04-23T19:16:21.292Z,14.86
2019-04-23T19:18:56.718Z,14.80
2019-04-23T19:21:47.309Z,14.77
2019-04-23T19:24:03.067Z,14.69
2019-04-23T19:27:09.106Z,14.64
2019-04-23T19:29:36.493Z,14.64
2019-04-23T19:34:39.310Z,14.57
2019-04-23T19:37:26.360Z,14.51
2019-04-23T19:39:55.042Z,14.47
2019-04-23T19:45:16.881Z,14.40
2019-04-23T19:47:58.700Z,14.33
2019-04-23T19:50:33.008Z,14.26
2019-04-23T19:55:56.755Z,14.18
2019-04-23T19:58:29.978Z,14.13
2019-04-23T20:03:44.488Z,14.09
2019-04-23T20:06:19.055Z,14.02
2019-04-23T20:11:34.706Z,13.96
2019-04-23T20:14:24.096Z,13.96
2019-04-23T20:19:30.027Z,13.89
2019-04-23T20:27:19.464Z,13.83
2019-04-23T20:33:35.006Z,13.82
2019-04-23T20:35:35.245Z,13.75
2019-04-23T20:43:32.447Z,13.66
2019-04-23T20:46:08.389Z,13.62
2019-04-23T20:48:48.940Z,13.62
2019-04-23T20:51:24.694Z,13.57
2019-04-23T20:54:02.276Z,13.55
2019-04-23T20:56:45.516Z,13.52
2019-04-23T20:59:16.851Z,13.48
2019-04-23T21:02:28.359Z,13.46
2019-04-23T21:05:01.372Z,13.40
2019-04-23T21:07:41.942Z,13.35
2019-04-23T21:10:19.945Z,13.33
2019-04-23T21:13:01.180Z,13.31
2019-04-23T21:20:38.032Z,13.25
2019-04-23T21:23:12.522Z,13.21
2019-04-23T21:25:47.494Z,13.23
2019-04-23T21:28:36.245Z,13.14
2019-04-23T21:36:25.353Z,13.13
2019-04-23T21:42:07.506Z,13.08
2019-04-23T21:44:47.450Z,13.05
2019-04-23T21:47:30.707Z,13.05
2019-04-23T21:50:11.870Z,13.03
2019-04-23T21:52:41.130Z,13.02
2019-04-23T21:55:21.737Z,13.02
2019-04-23T22:00:49.432Z,12.99
2019-04-23T22:03:18.135Z,12.99
2019-04-23T22:05:55.325Z,12.98
2019-04-23T22:08:26.343Z,12.99
2019-04-23T22:11:37.646Z,13.01
2019-04-23T22:16:23.445Z,13.03
2019-04-23T22:19:10.650Z,13.03
2019-04-23T22:24:27.587Z,13.06
2019-04-23T22:27:06.619Z,13.07
2019-04-23T22:29:38.034Z,13.06
2019-04-23T22:32:02.478Z,13.03
2019-04-23T22:34:54.207Z,13.07
2019-04-23T22:37:24.033Z,13.07
2019-04-23T22:40:18.147Z,13.04
2019-04-23T22:45:21.109Z,13.05
2019-04-23T22:50:47.251Z,13.03
2019-04-23T22:53:09.215Z,13.05
2019-04-23T22:58:31.661Z,13.06
2019-04-23T23:03:51.575Z,13.05
2019-04-23T23:06:41.379Z,13.05
2019-04-23T23:14:27.687Z,12.93
2019-04-23T23:22:44.877Z,12.82
2019-04-23T23:25:06.647Z,12.76
2019-04-23T23:27:41.388Z,12.74
2019-04-23T23:30:09.996Z,12.71
2019-04-23T23:38:09.810Z,12.78
2019-04-23T23:40:54.952Z,12.83
2019-04-23T23:46:10.917Z,12.85
2019-04-23T23:48:35.957Z,12.77
2019-04-23T23:51:17.817Z,12.70
2019-04-23T23:53:58.721Z,12.67
2019-04-23T23:56:19.345Z,12.61
2019-04-23T23:59:19.024Z,12.54
